Date,TemperatureHighF,TemperatureAvgF,TemperatureLowF,DewpointHighF,DewpointAvgF,DewpointLowF,HumidityHigh,HumidityAvg,HumidityLow,PressureMaxIn,PressureMinIn,WindSpeedMaxMPH,WindSpeedAvgMPH,GustSpeedMaxMPH,PrecipitationSumIn
2013-1-21,5,4,4,-4,-4,-5,67,66,62,0.00,40.00,9,6,18,0.00
2013-1-22,15,8,0,0,-4,-9,79,58,43,0.00,40.00,10,4,16,0.00
2013-1-23,31,20,12,13,6,-1,62,54,43,0.00,40.00,14,6,28,0.00
2013-1-24,22,14,5,8,-2,-7,62,50,33,0.00,40.00,11,4,24,0.00
2013-1-25,38,27,18,19,12,4,70,55,38,0.00,40.00,12,6,24,0.00
2013-1-26,32,21,8,13,7,2,78,56,37,0.00,40.00,9,3,16,0.00
2013-1-27,30,30,29,18,16,13,60,55,50,0.00,40.00,14,9,21,0.00
2013-1-28,52,41,38,41,-35,-100,100,46,96,0.00,40.00,9,2,17,0.00
2013-1-29,58,48,36,56,16,-100,99,76,93,0.00,40.00,7,4,21,0.00
2013-1-30,36,27,15,35,25,10,99,91,78,0.00,40.00,15,8,35,0.00
2013-1-31,12,8,3,7,1,-6,80,70,63,0.00,40.00,14,9,29,0.00
2013-2-1,22,6,-3,15,-2,-10,77,68,55,0.00,40.00,10,5,22,0.00
2013-2-2,26,21,17,22,14,8,90,75,61,0.00,40.00,14,5,23,0.00
2013-2-3,26,21,17,20,14,9,93,76,55,0.00,40.00,12,4,24,0.00
2013-2-4,28,25,15,21,18,13,91,76,65,0.00,40.00,15,4,19,0.00
2013-2-5,39,29,15,30,23,13,93,80,66,0.00,40.00,9,4,19,0.00
2013-2-6,44,34,21,35,28,20,96,82,66,0.00,40.00,13,4,19,0.00
2013-2-7,38,36,33,38,35,30,99,95,82,0.00,40.00,9,4,18,0.00
2013-2-8,33,30,28,30,25,23,91,81,74,0.00,40.00,13,4,22,0.00
2013-2-9,35,30,27,30,26,23,94,84,76,0.00,40.00,18,8,26,0.00
2013-2-10,51,41,32,48,37,29,98,87,55,0.00,40.00,19,10,36,0.00
2013-2-11,38,33,30,30,23,20,76,67,62,0.00,40.00,18,10,34,0.00
2013-2-12,40,32,27,28,24,20,90,73,49,0.00,40.00,9,3,16,0.00
2013-2-13,46,35,26,31,28,24,92,77,54,0.00,40.00,7,3,15,0.00
2013-2-14,41,37,31,33,30,27,96,75,59,0.00,40.00,11,6,24,0.00
2013-2-15,31,26,20,27,13,8,86,59,39,0.00,40.00,10,6,20,0.00
2013-2-16,27,20,14,14,11,6,83,67,54,0.00,40.00,11,4,19,0.00
2013-2-17,38,26,13,24,16,9,87,68,45,0.00,40.00,16,6,26,0.00
2013-2-18,56,36,19,43,30,11,98,77,51,0.00,40.00,16,8,34,0.00
2013-2-19,24,16,9,14,6,1,83,65,49,0.00,40.00,15,9,33,0.00
2013-2-20,26,15,4,15,5,-3,77,65,51,0.00,40.00,9,3,16,0.00
2013-2-21,29,23,16,26,17,9,97,80,67,0.00,40.00,11,5,24,0.00
2013-2-22,32,28,24,28,23,18,97,85,70,0.00,40.00,9,5,20,0.00
2013-2-23,32,26,19,20,18,14,85,71,56,0.00,40.00,9,4,14,0.00
2013-2-24,37,25,11,25,18,9,95,78,57,0.00,40.00,6,1,11,0.00
2013-2-25,44,33,24,30,26,22,96,77,52,0.00,40.00,7,3,15,0.00
2013-2-26,36,33,31,32,29,27,99,87,69,0.00,40.00,14,8,28,0.00
2013-2-27,34,32,30,32,30,28,97,93,90,0.00,40.00,11,6,19,0.00
2013-2-28,36,33,30,30,28,26,95,85,69,0.00,40.00,11,6,21,0.00
2013-3-1,33,29,26,28,22,17,96,76,53,0.00,40.00,9,4,18,0.00
2013-3-2,32,24,15,20,14,10,84,65,46,0.00,40.00,7,3,14,0.00
2013-3-3,31,21,9,16,12,6,94,69,35,0.00,40.00,7,2,11,0.00
2013-3-4,38,31,24,27,23,13,93,74,58,0.00,40.00,11,5,21,0.00
2013-3-5,33,31,29,29,27,23,98,86,75,0.00,40.00,15,6,28,0.00
2013-3-6,29,26,23,23,20,17,84,76,68,0.00,40.00,12,5,23,0.00
2013-3-7,33,23,11,24,18,9,95,82,65,0.00,40.00,8,2,11,0.00
2013-3-8,43,32,22,32,26,20,92,78,60,0.00,40.00,13,4,19,0.00
2013-3-9,42,38,36,41,36,31,99,93,79,0.00,40.00,19,7,26,0.00
2013-3-10,45,42,38,44,-78,-100,99,15,96,0.00,40.00,12,3,21,0.00
2013-3-11,38,34,29,33,-35,-100,99,43,72,0.00,40.00,11,5,24,0.00
2013-3-12,35,29,25,31,24,17,95,80,65,0.00,40.00,15,6,28,0.00
2013-3-13,36,27,22,21,17,11,80,66,37,0.00,40.00,9,5,21,0.00
2013-3-14,49,38,26,33,27,19,86,67,47,0.00,40.00,13,3,23,0.00
2013-3-15,49,38,29,38,33,29,98,84,61,0.00,40.00,6,2,14,0.00
2013-3-16,38,35,32,35,32,24,99,88,72,0.00,40.00,11,5,25,0.00
2013-3-17,38,32,27,26,22,16,80,67,50,0.00,40.00,10,5,19,0.00
2013-3-18,36,31,23,34,25,13,97,81,61,0.00,40.00,14,6,34,0.00
2013-3-19,36,25,17,20,12,7,70,58,41,0.00,40.00,11,7,28,0.00
2013-3-30,55,51,47,45,40,-100,92,72,54,0.00,40.00,13,6,21,0.00
2013-3-31,56,47,38,46,36,23,99,70,37,0.00,40.00,11,5,28,0.00
2013-4-1,41,34,28,26,19,14,75,55,34,0.00,40.00,11,6,21,0.00
2013-4-2,46,34,22,22,18,10,86,55,25,0.00,40.00,11,4,21,0.00
2013-4-3,52,38,26,26,16,11,77,46,20,0.00,40.00,10,3,15,0.00
2013-4-4,63,46,29,39,26,15,73,49,25,0.00,40.00,8,3,15,0.00
2013-4-5,59,48,34,36,27,21,78,48,23,0.00,40.00,10,4,19,0.00
2013-4-6,68,56,44,53,36,22,85,48,33,0.00,40.00,18,8,37,0.00
2013-4-7,66,52,37,44,40,36,97,67,40,0.00,40.00,9,3,18,0.00
2013-4-8,74,61,49,58,52,41,99,74,47,0.00,40.00,10,4,23,0.00
2013-4-9,77,59,47,62,54,44,94,83,58,0.00,40.00,10,5,21,0.00
2013-4-10,47,42,39,44,41,39,99,97,88,0.00,40.00,16,6,37,0.00
2013-4-11,46,42,38,45,25,-100,100,82,78,0.00,40.00,11,4,21,0.00
2013-4-12,44,39,37,37,33,30,97,79,63,0.00,40.00,13,6,26,0.00
2013-4-13,52,42,35,39,30,24,84,63,44,0.00,40.00,13,5,23,0.00
2013-4-14,75,58,43,56,43,36,93,63,35,0.00,40.00,24,10,35,0.00
2013-4-15,63,50,41,52,33,-100,99,73,37,0.00,40.00,10,4,23,0.00
2013-4-16,52,44,36,41,35,30,93,70,51,0.00,40.00,7,3,14,0.00
2013-4-17,51,45,41,45,8,-100,99,66,63,0.00,40.00,19,-9,30,0.00
2013-4-18,62,51,37,61,-26,-100,99,46,76,0.00,40.00,16,8,37,0.00
2013-4-19,41,38,35,34,29,26,87,72,59,0.00,40.00,16,9,32,0.00
2013-4-20,50,40,31,30,25,20,85,59,31,0.00,40.00,6,3,16,0.00
2013-4-21,61,48,38,43,35,28,71,60,46,0.00,40.00,21,10,31,0.00
2013-4-22,69,58,48,51,39,36,95,52,32,0.00,40.00,19,9,29,0.00
2013-4-23,52,43,38,51,39,32,96,87,71,0.00,40.00,11,6,23,0.00
2013-4-24,54,44,35,33,29,20,81,57,28,0.00,40.00,10,5,18,0.00
2013-4-25,57,47,37,40,31,24,92,58,29,0.00,40.00,13,5,28,0.00
2013-4-26,68,56,45,48,41,30,77,58,39,0.00,40.00,16,7,28,0.00
2013-4-27,65,56,45,49,46,43,97,70,48,0.00,40.00,13,4,28,0.00
2013-4-28,74,61,47,51,47,42,96,65,34,0.00,40.00,6,2,9,0.00
2013-4-29,81,64,50,60,54,49,95,71,47,0.00,40.00,16,7,29,0.00
2013-4-30,87,76,62,59,53,44,86,50,23,0.00,40.00,12,6,29,0.00
2013-5-1,85,72,55,57,52,44,76,53,25,0.00,40.00,15,5,29,0.00
2013-5-2,55,46,39,46,41,38,99,82,70,0.00,40.00,13,7,28,0.00
2013-5-3,49,40,37,43,1,-100,99,72,95,0.00,40.00,11,6,22,0.00
2013-5-4,63,57,47,60,-29,-100,99,43,82,0.00,40.00,6,2,16,0.00
2013-5-5,74,61,50,59,-2,-100,99,44,46,0.00,40.00,5,2,16,0.00
2013-5-6,77,64,52,55,51,46,94,68,35,0.00,40.00,5,1,11,0.00
2013-5-7,81,66,54,55,50,42,98,64,27,0.00,40.00,4,1,6,0.00
2013-5-8,80,66,53,60,54,46,99,70,34,0.00,40.00,6,1,15,0.00
2013-5-9,70,63,60,63,17,-100,99,66,70,0.00,40.00,9,2,13,0.00
2013-5-10,60,53,49,57,26,-100,99,75,76,0.00,40.00,7,3,15,0.00
2013-5-11,59,52,47,51,29,-100,99,57,31,0.00,40.00,14,5,34,0.00
2013-5-12,59,49,39,42,29,23,89,49,26,0.00,40.00,9,4,20,0.00
2013-5-13,71,55,37,47,38,29,97,59,23,0.00,40.00,11,3,19,0.00
2013-5-14,91,73,56,62,54,43,76,53,32,0.00,40.00,10,5,20,0.00
2013-5-15,82,74,62,58,52,44,83,47,26,0.00,40.00,7,2,20,0.00
2013-5-16,84,64,58,62,35,-100,92,62,25,0.00,40.00,9,2,19,0.00
2013-5-17,82,70,60,63,53,-100,94,70,43,0.00,40.00,9,3,16,0.00
2013-5-18,82,72,63,66,63,61,99,75,51,0.00,40.00,12,4,20,0.00
2013-5-19,86,73,65,73,65,55,99,77,41,0.00,40.00,16,6,32,0.00
2013-5-20,81,72,62,64,61,55,99,71,50,0.00,40.00,36,7,56,0.00
2013-5-21,78,69,62,62,59,54,95,71,47,0.00,40.00,11,4,22,0.00
2013-5-22,69,63,58,60,55,50,97,75,59,0.00,40.00,9,2,19,0.00
2013-5-23,70,61,55,58,52,43,99,74,42,0.00,40.00,8,3,21,0.00
2013-5-24,69,58,46,48,42,35,95,58,29,0.00,40.00,10,2,17,0.00
2013-5-25,59,52,46,51,46,41,99,83,51,0.00,40.00,6,2,14,0.00
2013-5-26,59,54,50,58,37,-100,99,86,88,0.00,40.00,4,2,15,0.00
2013-5-27,74,64,58,67,50,-100,99,85,78,0.00,40.00,7,2,14,0.00
2013-5-28,78,70,63,72,67,62,99,90,77,0.00,40.00,18,4,24,0.00
2013-5-29,84,72,62,71,64,-100,99,80,57,0.00,40.00,17,8,27,0.00
2013-5-30,82,73,63,71,66,61,96,79,61,0.00,40.00,27,13,43,0.00
2013-5-31,76,68,62,68,63,57,97,86,64,0.00,40.00,27,9,47,0.00
2013-6-1,76,69,64,68,60,-100,98,80,46,0.00,40.00,10,4,18,0.00
2013-6-2,67,60,54,60,51,46,87,72,51,0.00,40.00,9,4,21,0.00
2013-6-3,71,61,51,53,49,45,92,68,44,0.00,40.00,8,2,15,0.00
2013-6-4,72,63,54,61,52,47,92,69,49,0.00,40.00,9,2,21,0.00
2013-6-5,68,64,59,64,60,56,97,88,77,0.00,40.00,5,1,12,0.00
2013-6-6,69,62,58,61,37,-100,99,74,72,0.00,40.00,5,1,9,0.00
2013-6-7,74,64,58,59,55,52,95,75,51,0.00,40.00,5,2,11,0.00
2013-6-8,77,67,58,59,55,51,98,67,43,0.00,40.00,7,2,14,0.00
2013-6-9,74,68,64,65,60,53,92,77,65,0.00,40.00,11,4,19,0.00
2013-6-10,79,68,59,66,62,58,99,82,54,0.00,40.00,5,1,12,0.00
2013-6-11,87,74,61,73,66,60,99,80,51,0.00,40.00,10,2,20,0.00
2013-6-12,90,79,69,75,70,64,99,78,56,0.00,40.00,14,3,26,0.00
2013-6-13,84,74,65,66,59,53,88,63,36,0.00,40.00,8,3,23,0.00
2013-6-14,80,70,61,63,59,56,88,68,49,0.00,40.00,11,2,19,0.00
2013-6-15,80,72,66,73,67,62,99,87,69,0.00,40.00,11,3,21,0.00
2013-6-16,86,74,67,69,65,61,92,75,45,0.00,40.00,6,1,12,0.00
2013-6-17,88,76,64,68,64,56,100,69,35,0.00,40.00,5,2,9,0.00
2013-6-18,84,73,63,66,61,56,95,67,44,0.00,40.00,4,2,11,0.00
2013-6-19,85,71,58,66,58,50,87,66,42,0.00,40.00,5,1,9,0.00
2013-6-20,87,72,64,64,60,57,84,68,45,0.00,40.00,11,3,21,0.00
2013-6-22,93,85,76,75,71,68,81,66,47,0.00,40.00,18,9,34,0.00
2013-6-23,83,76,70,71,66,62,87,72,59,0.00,40.00,14,5,24,0.00
2013-6-24,76,70,65,71,28,-100,99,70,82,0.00,40.00,7,2,22,0.00
2013-6-25,87,77,67,76,39,-100,99,66,65,0.00,40.00,8,3,16,0.00
2013-6-26,85,77,67,77,48,-100,100,72,67,0.00,40.00,10,2,17,0.00
2013-6-27,88,79,71,75,69,67,99,73,55,0.00,40.00,6,2,16,0.00
2013-6-28,84,76,70,67,62,57,82,63,42,0.00,40.00,9,4,24,0.00
2013-6-29,74,68,66,68,64,61,99,85,70,0.00,40.00,9,3,15,0.00
2013-6-30,80,71,63,64,60,58,89,69,51,0.00,40.00,7,3,14,0.00
2013-7-1,81,70,61,59,56,52,84,62,37,0.00,40.00,5,2,16,0.00
2013-7-2,82,70,61,62,58,54,83,66,40,0.00,40.00,5,1,11,0.00
2013-7-3,79,68,58,59,55,52,87,66,39,0.00,40.00,2,0,5,0.00
2013-7-4,84,72,60,66,60,53,94,67,40,0.00,40.00,6,1,13,0.00
2013-7-5,86,75,64,68,63,61,96,70,43,0.00,40.00,10,3,19,0.00
2013-7-6,87,75,65,69,66,62,96,75,49,0.00,40.00,6,2,17,0.00
2013-7-7,89,78,67,72,69,66,96,75,53,0.00,40.00,8,3,14,0.00
2013-7-8,87,77,71,76,69,-100,99,82,63,0.00,40.00,6,3,16,0.00
2013-7-9,88,80,74,79,67,-100,100,84,68,0.00,40.00,8,2,15,0.00
2013-7-10,84,76,66,78,63,-100,99,69,47,0.00,40.00,8,4,19,0.00
2013-7-11,83,73,64,64,61,56,97,69,43,0.00,40.00,4,2,8,0.00
2013-7-12,84,72,61,63,58,54,89,65,36,0.00,40.00,11,2,16,0.00
2013-7-13,84,73,60,67,62,57,92,70,49,0.00,40.00,6,1,9,0.00
2013-7-14,87,77,67,72,65,61,93,70,45,0.00,40.00,11,2,16,0.00
2013-7-15,91,80,72,75,73,70,98,80,54,0.00,40.00,6,1,12,0.00
2013-7-16,92,85,73,77,75,72,99,73,55,0.00,40.00,6,2,12,0.00
2013-7-17,95,84,73,78,74,71,97,75,49,0.00,40.00,4,1,7,0.00
2013-7-18,94,85,73,77,73,70,98,71,48,0.00,40.00,6,2,13,0.00
2013-7-19,96,84,72,73,60,-100,99,62,45,0.00,40.00,8,3,20,0.00
2013-7-20,89,77,67,71,64,-100,99,67,46,0.00,40.00,5,1,11,0.00
2013-7-21,84,73,67,73,67,63,95,81,59,0.00,40.00,10,2,18,0.00
2013-7-22,88,75,64,75,69,64,99,84,65,0.00,40.00,16,3,31,0.00
2013-7-23,78,71,66,67,62,57,99,76,52,0.00,40.00,7,3,15,0.00
2013-7-24,78,68,58,61,58,53,95,71,43,0.00,40.00,4,1,9,0.00
2013-7-25,82,69,57,66,60,56,97,76,53,0.00,40.00,9,3,15,0.00
2013-7-26,81,69,64,70,46,-100,99,73,49,0.00,40.00,8,3,21,0.00
2013-7-27,67,62,57,58,51,45,91,68,46,0.00,40.00,8,4,18,0.00
2013-7-28,72,63,56,56,52,49,94,68,49,0.00,40.00,6,2,15,0.00
2013-7-29,77,65,52,63,56,51,99,75,42,0.00,40.00,4,1,10,0.00
2013-7-30,67,66,63,67,64,57,99,93,72,0.00,40.00,5,1,11,0.00
2013-7-31,82,71,66,69,62,-100,99,82,59,0.00,40.00,6,-8,10,0.00
2013-8-1,84,72,60,67,63,57,99,75,41,0.00,40.00,5,1,10,0.00
2013-8-2,85,75,68,69,66,62,91,75,56,0.00,40.00,7,2,17,0.00
2013-8-3,81,72,62,63,59,53,89,67,40,0.00,40.00,5,1,12,0.00
2013-8-4,81,70,59,62,58,51,94,68,40,0.00,40.00,6,1,14,0.00
2013-8-5,77,67,59,71,64,57,98,89,78,0.00,40.00,10,2,17,0.00
2013-8-6,86,74,67,77,35,-100,99,69,67,0.00,40.00,8,3,13,0.00
2013-8-7,86,76,67,73,65,-100,99,77,52,0.00,40.00,8,2,18,0.00
2013-8-8,84,72,61,66,63,59,94,75,51,0.00,40.00,4,1,8,0.00
2013-8-9,83,72,62,69,65,62,99,80,59,0.00,40.00,4,1,11,0.00
2013-8-10,81,71,59,63,58,52,91,66,39,0.00,40.00,8,2,17,0.00
2013-8-11,85,72,60,67,62,58,96,75,48,0.00,40.00,6,2,13,0.00
2013-8-21,90,78,68,71,68,65,92,73,50,0.00,40.00,8,4,16,0.00
2013-8-22,81,74,70,70,68,67,94,81,70,0.00,40.00,6,2,14,0.00
2013-8-23,86,74,65,69,55,-100,99,71,52,0.00,40.00,3,1,13,0.00
2013-8-24,89,74,63,72,63,-100,88,73,58,0.00,40.00,11,3,17,0.00
2013-8-25,91,78,68,70,68,65,94,73,43,0.00,40.00,11,4,18,0.00
2013-8-26,94,80,68,73,69,64,90,71,47,0.00,40.00,5,3,13,0.00
2013-8-27,96,80,73,72,71,69,91,74,44,0.00,40.00,5,3,16,0.00
2013-9-21,70,57,50,52,46,-100,97,72,45,0.00,40.00,8,3,16,0.00
2013-9-22,76,59,47,54,50,47,100,76,43,0.00,40.00,8,1,13,0.00
2013-9-23,76,61,47,53,49,45,94,68,43,0.00,40.00,9,3,19,0.00
2013-9-24,77,63,50,59,53,47,92,71,47,0.00,40.00,4,1,10,0.00
2013-9-25,78,65,54,60,54,52,91,71,43,0.00,40.00,4,1,10,0.00
2013-9-26,85,68,55,62,57,52,90,70,44,0.00,40.00,10,3,19,0.00
2013-9-27,84,69,57,63,56,51,85,64,38,0.00,40.00,14,4,26,0.00
2013-10-12,71,62,49,59,44,-100,87,56,33,0.00,40.00,11,3,20,0.00
2013-10-13,67,52,41,42,37,28,86,60,25,0.00,40.00,4,1,10,0.00
2013-10-14,66,53,42,44,41,38,99,66,38,0.00,40.00,10,2,22,0.00
2013-10-15,65,57,51,58,48,38,97,73,48,0.00,40.00,11,5,19,0.00
2013-10-16,53,50,49,45,44,42,85,78,72,0.00,40.00,7,3,17,0.00
2013-10-17,62,52,44,45,41,34,88,70,34,0.00,40.00,6,2,13,0.00
2013-10-18,51,47,43,43,38,35,88,71,59,0.00,40.00,7,3,19,0.00
2013-10-31,63,53,44,62,52,42,100,97,91,0.00,40.00,13,4,24,0.00
2013-11-1,49,46,40,45,43,40,99,89,74,0.00,40.00,6,2,15,0.00
2013-11-2,52,42,34,41,33,-100,99,74,46,0.00,40.00,8,4,16,0.00
2013-11-3,55,42,30,35,33,30,100,73,45,0.00,40.00,16,5,24,0.00
2013-11-4,57,50,45,45,40,34,81,67,57,0.00,40.00,17,8,27,0.00
2013-11-5,56,52,49,54,50,45,98,92,81,0.00,40.00,19,6,29,0.00
2013-11-6,56,45,33,56,39,27,99,82,55,0.00,40.00,11,5,20,0.00
2013-12-22,29,25,17,28,22,12,98,87,78,0.00,40.00,14,6,23,0.00
2013-12-23,16,3,-3,11,-4,-9,80,72,61,0.00,40.00,10,4,19,0.00
2013-12-24,18,2,-12,12,-5,-17,81,72,59,0.00,40.00,8,3,14,0.00
2013-12-25,27,24,18,24,20,12,91,83,73,0.00,40.00,10,4,16,0.00
2013-12-26,35,24,13,29,20,11,96,84,69,0.00,40.00,7,3,15,0.00
2013-12-27,38,29,17,30,24,16,97,85,69,0.00,40.00,7,4,11,0.00
2013-12-28,45,37,30,33,30,27,94,79,62,0.00,40.00,6,4,13,0.00